CheckWX is a tool to help pilots better visualize weather data.  It is not intended as a substitute for an official pre-flight weather briefing.

09:58:33 UTC

KSBP METAR
San Luis County Regional Airport
San Luis Obispo, California, USA
Current

1 hour ago

KSBP 200856Z AUTO 16003KT 10SM CLR 02/00 A3011 RMK AO2 SLP199 T00220000 55010
Observed
Feb-20 @ 08:56 UTC
Wind
  • 160° at 3 KTS
Visibility
16,093 meters
Flight Rules
VFR
Cloud Levels
  • Clear skies
Temperature
C / 36°F
Dewpoint
C / 32°F
Humidity
87%
Altimeter
30.11" Hg
Pressure
1019.9 hPa
Previous

2 hours ago

KSBP 200756Z AUTO 09003KT 10SM CLR 04/00 A3011 RMK AO2 SLP198 T00390000 401391006
Observed
Feb-20 @ 07:56 UTC
Wind
  • 090° at 3 KTS
Visibility
16,093 meters
Flight Rules
VFR
Cloud Levels
  • Clear skies
Temperature
C / 39°F
Dewpoint
C / 32°F
Humidity
75%
Altimeter
30.11" Hg
Pressure
1019.8 hPa
Previous

3 hours ago

KSBP 200656Z AUTO 00000KT 10SM CLR 04/00 A3014 RMK AO2 SLP206 T00390000
Observed
Feb-20 @ 06:56 UTC
Visibility
16,093 meters
Flight Rules
VFR
Cloud Levels
  • Clear skies
Temperature
C / 39°F
Dewpoint
C / 32°F
Humidity
75%
Altimeter
30.14" Hg
Pressure
1020.6 hPa